Latest Coastal Weather Observations for Lake Macquarie - Cooranbong

IDN60701

Issued at 1:41 am EST Monday 20 April 2015 (issued every 10 minutes, with the page automatically refreshed every 10 minutes)

About coastal observations | Map of coastal stations | Coastal observations for NSW | Marine services | Other Formats
Station Details ID: 061412 Name: LAKE MACQUARIE AWS Lat: -33.09 Lon: 151.46 Height: 6.0 m
Data from the previous 72 hours. | See also: Recent months at Lake Macquarie - Cooranbong
Date/Time
EST
Temp

°C
Wind Pressure Rain
since 9am
mm
Weather Cloud Vis
km
Sea
Height
m
Swell
Dir
 
Speed
knots
Gust
knots
hPa Trend Height
m
Period
s
Dir
20/01:30am 13.3 SW 4 8 1023.8 - 0.8 - - - - - - -
20/01:00am 13.6 SW 3 7 1023.8 - 0.4 - - - - - - -
20/12:30am 13.6 WSW 4 8 1024.2 - 0.4 - - - - - - -
20/12:00am 13.8 SW 4 10 1024.0 - 0.4 - - - - - - -
 
Date/Time
EST
Temp

°C
Wind Pressure Rain
since 9am
mm
Weather Cloud Vis
km
Sea
Height
m
Swell
Dir
 
Speed
knots
Gust
knots
hPa Trend Height
m
Period
s
Dir
19/11:30pm 14.0 SW 2 5 1024.1 - 0.4 - - - - - - -
19/11:00pm 14.4 SW 3 7 1024.3 - 0.4 - - - - - - -
19/10:30pm 14.9 SSW 3 6 1024.5 - 0.4 - - - - - - -
19/10:00pm 15.7 SSW 5 11 1024.5 - 0.2 - - - - - - -
19/09:30pm 16.1 S 5 8 1024.1 - 0.2 - - - - - - -
19/09:00pm 16.3 SSW 4 12 1023.8 - 0.2 - - - - - - -
19/08:30pm 16.8 SSW 3 9 1023.7 - 0.2 - - - - - - -
19/08:00pm 17.0 S 7 13 1023.2 - 0.2 - - - - - - -
19/07:30pm 17.1 S 4 10 1022.8 - 0.0 - - - - - - -
19/07:00pm 17.5 S 5 12 1022.6 - 0.0 - - - - - - -
19/06:30pm 17.7 SSE 4 13 1021.6 - 0.0 - - - - - - -
19/06:00pm 18.0 S 5 10 1021.5 - 0.0 - - - - - - -
19/05:30pm 18.1 S 2 7 1021.0 - 0.0 - - - - - - -
19/05:00pm 18.4 S 5 11 1020.7 - 0.0 - - - - - - -
19/04:30pm 18.6 S 5 8 1020.2 - 0.0 - - - - - - -
19/04:00pm 19.9 S 6 13 1019.5 - 0.0 - - - - - - -
19/03:30pm 19.6 SSE 6 13 1019.2 - 0.0 - - - - - - -
19/03:00pm 19.7 SSE 6 12 1018.9 - 0.0 - - - - - - -
19/02:30pm 21.1 SSE 4 8 1018.6 - 0.0 - - - - - - -
19/02:00pm 22.5 ESE 3 7 1018.3 - 0.0 - - - - - - -
19/01:30pm 22.0 SSW 1 4 1018.2 - 0.0 - - - - - - -
19/01:00pm 21.6 WSW 2 3 1018.4 - 0.0 - - - - - - -
19/12:30pm 21.1 SW 3 6 1018.5 - 0.0 - - - - - - -
19/12:00pm 21.2 WSW 4 7 1018.8 - 0.0 - - - - - - -
19/11:30am 21.4 WSW 3 5 1018.8 - 0.0 - - - - - - -
19/11:00am 21.7 WSW 5 11 1018.8 - 0.0 - - - - - - -
19/10:30am 21.7 SW 5 13 1018.8 - 0.0 - - - - - - -
19/10:00am 22.5 WSW 5 9 1018.5 - 0.0 - - - - - - -
19/09:30am 22.7 WSW 4 8 1018.3 - 0.0 - - - - - - -
19/09:00am 21.8 WNW 1 2 1018.2 - 1.4 - - - - - - -
19/08:30am 19.9 NNW 2 5 1017.9 - 1.4 - - - - - - -
19/08:00am 18.9 NNE 1 2 1017.4 - 1.4 - - - - - - -
19/07:30am 18.1 CALM 0 0 1017.0 - 1.4 - - - - - - -
19/07:00am 17.4 CALM 0 3 1016.6 - 1.4 - - - - - - -
19/06:30am 17.5 CALM 0 0 1016.2 - 1.4 - - - - - - -
19/06:00am 17.6 N 2 3 1015.6 - 1.4 - - - - - - -
19/05:30am 17.6 NNW 1 2 1015.5 - 1.4 - - - - - - -
19/05:00am 17.8 CALM 0 1 1015.0 - 1.4 - - - - - - -
19/04:30am 17.9 CALM 0 1 1014.8 - 1.4 - - - - - - -
19/04:00am 17.9 E 1 2 1014.9 - 1.4 - - - - - - -
19/03:30am 18.0 NNE 1 3 1015.0 - 1.0 - - - - - - -
19/03:00am 18.3 NW 1 2 1014.8 - 0.8 Recent precip. - - - - - -
19/02:30am 18.6 N 4 7 1014.9 - 0.4 - - - - - - -
19/02:00am 19.5 NNW 5 8 1015.1 - 0.0 - - - - - - -
19/01:30am 18.8 CALM 0 0 1015.0 - 0.0 - - - - - - -
19/01:00am 20.0 WNW 1 3 1015.1 - 0.0 - - - - - - -
19/12:30am 20.9 NNW 4 8 1015.9 - 0.0 - - - - - - -
19/12:00am 21.6 NW 4 8 1015.9 - 0.0 - - - - - - -
 
Date/Time
EST
Temp

°C
Wind Pressure Rain
since 9am
mm
Weather Cloud Vis
km
Sea
Height
m
Swell
Dir
 
Speed
knots
Gust
knots
hPa Trend Height
m
Period
s
Dir
18/11:30pm 22.8 WNW 8 17 1015.9 - 0.0 - - - - - - -
18/11:00pm 22.1 WNW 5 9 1015.4 - 0.0 - - - - - - -
18/10:30pm 18.9 CALM 0 0 1015.1 - 0.0 - - - - - - -
18/10:00pm 18.9 CALM 0 0 1015.3 - 0.0 - - - - - - -
18/09:30pm 19.1 N 1 2 1015.2 - 0.0 - - - - - - -
18/09:00pm 19.2 CALM 0 0 1015.3 - 0.0 - - - - - - -
18/08:30pm 19.4 CALM 0 0 1014.9 - 0.0 - - - - - - -
18/08:00pm 19.6 CALM 0 0 1014.7 - 0.0 - - - - - - -
18/07:30pm 20.2 CALM 0 0 1014.6 - 0.0 - - - - - - -
18/07:00pm 20.3 N 1 1 1014.4 - 0.0 - - - - - - -
18/06:30pm 21.4 CALM 0 0 1014.4 - 0.0 - - - - - - -
18/06:00pm 21.7 N 1 3 1014.4 - 0.0 - - - - - - -
18/05:30pm 22.6 N 2 3 1014.3 - 0.0 - - - - - - -
18/05:00pm 23.3 NE 2 4 1014.2 - 0.0 - - - - - - -
18/04:30pm 23.7 NE 2 4 1014.4 - 0.0 - - - - - - -
18/04:00pm 24.2 NE 2 3 1014.6 - 0.0 - - - - - - -
18/03:30pm 25.0 NNE 4 5 1014.8 - 0.0 - - - - - - -
18/03:00pm 24.9 NNE 2 4 1015.0 - 0.0 - - - - - - -
18/02:30pm 25.5 NNE 5 8 1015.3 - 0.0 - - - - - - -
18/02:00pm 26.4 N 6 10 1015.4 - 0.0 - - - - - - -
18/01:30pm 26.5 NNW 5 8 1015.4 - 0.0 - - - - - - -
18/01:00pm 26.0 NNE 5 10 1015.8 - 0.0 - - - - - - -
18/12:30pm 25.4 NNE 3 5 1016.3 - 0.0 - - - - - - -
18/12:00pm 24.7 NNE 3 5 1016.8 - 0.0 - - - - - - -
18/11:30am 24.5 N 5 10 1017.5 - 0.0 - - - - - - -
18/11:00am 24.3 NNW 5 8 1017.9 - 0.0 - - - - - - -
18/10:30am 24.1 N 5 8 1018.3 - 0.0 - - - - - - -
18/10:00am 23.9 NNW 3 9 1018.7 - 0.0 - - - - - - -
18/09:30am 23.5 N 4 6 1019.0 - 0.0 - - - - - - -
18/09:00am 23.7 N 3 6 1019.3 - 0.0 - - - - - - -
18/08:30am 22.6 NNW 4 6 1019.2 - 0.0 - - - - - - -
18/08:00am 22.0 NNW 3 6 1019.1 - 0.0 - - - - - - -
18/07:30am 18.4 NW 2 3 1018.9 - 0.0 - - - - - - -
18/07:00am 17.4 N 2 7 1018.6 - 0.0 - - - - - - -
18/06:30am 16.2 CALM 0 2 1018.4 - 0.0 - - - - - - -
18/06:00am 16.5 CALM 0 0 1018.3 - 0.0 - - - - - - -
18/05:30am 17.0 CALM 0 0 1018.2 - 0.0 - - - - - - -
18/05:00am 17.7 CALM 0 0 1018.1 - 0.0 - - - - - - -
18/04:30am 17.8 CALM 0 0 1018.0 - 0.0 - - - - - - -
18/04:00am 17.8 CALM 0 1 1018.0 - 0.0 - - - - - - -
18/03:30am 18.1 CALM 0 0 1018.0 - 0.0 - - - - - - -
18/03:00am 18.0 CALM 0 0 1018.1 - 0.0 - - - - - - -
18/02:30am 18.3 CALM 0 0 1018.3 - 0.0 - - - - - - -
18/02:00am 18.2 CALM 0 0 1018.8 - 0.0 - - - - - - -
18/01:30am 18.2 CALM 0 0 1019.1 - 0.0 - - - - - - -
18/01:00am 18.4 CALM 0 0 1019.5 - 0.0 - - - - - - -
18/12:30am 19.2 CALM 0 0 1019.7 - 0.0 - - - - - - -
18/12:00am 19.4 CALM 0 0 1020.2 - 0.0 - - - - - - -
 
Date/Time
EST
Temp

°C
Wind Pressure Rain
since 9am
mm
Weather Cloud Vis
km
Sea
Height
m
Swell
Dir
 
Speed
knots
Gust
knots
hPa Trend Height
m
Period
s
Dir
17/11:30pm 19.9 CALM 0 0 1020.5 - 0.0 - - - - - - -
17/11:00pm 20.0 CALM 0 0 1020.8 - 0.0 - - - - - - -
17/10:30pm 20.1 CALM 0 0 1020.9 - 0.0 - - - - - - -
17/10:00pm 20.0 CALM 0 0 1021.1 - 0.0 - - - - - - -
17/09:30pm 19.7 CALM 0 0 1021.3 - 0.0 - - - - - - -
17/09:00pm 19.7 CALM 0 0 1021.4 - 0.0 - - - - - - -
17/08:30pm 20.3 CALM 0 0 1021.5 - 0.0 - - - - - - -
17/08:00pm 20.4 CALM 0 0 1021.6 - 0.0 - - - - - - -
17/07:30pm 20.9 CALM 0 0 1021.5 - 0.0 - - - - - - -
17/07:00pm 21.4 CALM 0 0 1021.6 - 0.0 - - - - - - -
17/06:30pm 21.5 CALM 0 0 1021.6 - 0.0 - - - - - - -
17/06:00pm 21.7 CALM 0 0 1021.3 - 0.0 - - - - - - -
17/05:30pm 21.9 CALM 0 1 1020.9 - 0.0 - - - - - - -
17/05:00pm 22.1 SE 2 4 1020.9 - 0.0 - - - - - - -
17/04:30pm 22.5 SE 2 4 1020.9 - 0.0 - - - - - - -
17/04:00pm 23.0 E 2 4 1020.9 - 0.0 - - - - - - -
17/03:30pm 22.9 ESE 3 5 1021.0 - 0.0 - - - - - - -
17/03:00pm 22.9 ESE 3 5 1021.1 - 0.0 - - - - - - -
17/02:30pm 23.3 ESE 4 5 1021.2 - 0.0 - - - - - - -
17/02:00pm 23.4 ESE 3 6 1021.4 - 0.0 - - - - - - -
17/01:30pm 23.9 E 4 5 1021.6 - 0.0 - - - - - - -
17/01:00pm 23.6 ESE 5 8 1022.1 - 0.0 - - - - - - -
17/12:30pm 23.2 S 3 5 1022.7 - 0.0 - - - - - - -
17/12:00pm 23.1 SW 1 3 1023.5 - 0.0 - - - - - - -
17/11:30am 23.1 SSE 1 2 1023.8 - 0.0 - - - - - - -
17/11:00am 23.3 SSW 1 4 1024.1 - 0.0 - - - - - - -
17/10:30am 22.8 CALM 0 0 1024.4 - 0.0 - - - - - - -
17/10:00am 22.9 E 2 4 1024.4 - 0.0 - - - - - - -
17/09:30am 23.1 SSW 1 4 1024.7 - 0.0 - - - - - - -
17/09:00am 21.8 SW 2 3 1025.0 - 0.0 - - - - - - -
17/08:30am 21.9 SW 1 2 1024.9 - 0.0 - - - - - - -
17/08:00am 21.1 CALM 0 0 1024.4 - 0.0 - - - - - - -
17/07:30am 19.8 CALM 0 0 1024.3 - 0.0 - - - - - - -
17/07:00am 19.0 CALM 0 0 1024.2 - 0.0 - - - - - - -
17/06:30am 18.4 CALM 0 0 1023.9 - 0.0 - - - - - - -
17/06:00am 18.5 CALM 0 0 1023.7 - 0.0 - - - - - - -
17/05:30am 18.9 NNW 1 3 1023.5 - 0.0 - - - - - - -
17/05:00am 19.4 CALM 0 0 1023.4 - 0.0 - - - - - - -
17/04:30am 19.3 CALM 0 0 1023.1 - 0.0 - - - - - - -
17/04:00am 20.0 WSW 1 3 1023.2 - 0.0 - - - - - - -
17/03:30am 20.4 WSW 1 3 1023.0 - 0.0 - - - - - - -
17/03:00am 20.5 WSW 2 3 1022.9 - 0.0 - - - - - - -
17/02:30am 20.5 SW 2 4 1023.0 - 0.0 - - - - - - -
17/02:00am 20.7 SW 1 3 1023.0 - 0.0 - - - - - - -

Other Formats:

Comma delimited format used in spreadsheet applications
http://www.bom.gov.au/fwo/IDN60701/IDN60701.95767.axf

JavaScript Object Notation format (JSON) in row-major order
http://www.bom.gov.au/fwo/IDN60701/IDN60701.95767.json